Time;durP1;ratioP1;P1;durP2;ratioP2;P2;SDS_P1;SDS_P2;PMS_P1;PMS_P2;Temp;Humidity;BMP_temperature;BMP_pressure;BME280_temperature;BME280_humidity;BME280_pressure;Samples;Min_cycle;Max_cycle;Signal;HPM_P1;HPM_P2
2023/07/26 00:01:59;;;;;;;4.68;3.92;;;;;;;-144.32;100.00;68061.97;10304594;28;20054;-78
2023/07/26 00:07:20;;;;;;;5.43;4.20;;;;;;;-144.32;100.00;68061.97;10302745;28;20511;-76
2023/07/26 00:12:27;;;;;;;5.97;4.30;;;;;;;-144.32;100.00;68061.97;10303526;28;20694;-76
2023/07/26 00:17:50;;;;;;;8.80;5.38;;;;;;;-144.32;100.00;68061.97;10296037;28;20051;-75
2023/07/26 00:23:24;;;;;;;6.00;5.40;;;;;;;-144.32;100.00;68061.97;10282976;28;20510;-77
2023/07/26 00:28:40;;;;;;;;;;;;;;;-144.32;100.00;68061.97;10297696;28;20034;-76
2023/07/26 00:34:10;;;;;;;7.95;5.93;;;;;;;-144.32;100.00;68061.97;10298697;28;19934;-77
2023/07/26 00:39:22;;;;;;;8.57;5.97;;;;;;;-144.32;100.00;68061.97;10300332;28;20093;-77
2023/07/26 00:44:30;;;;;;;9.05;6.45;;;;;;;-144.32;100.00;68061.97;10300946;28;20387;-76
2023/07/26 00:49:40;;;;;;;8.45;5.95;;;;;;;-144.32;100.00;68061.97;10300791;28;20097;-76
2023/07/26 00:54:56;;;;;;;10.35;6.28;;;;;;;-144.32;100.00;68061.97;10302605;28;20042;-77
2023/07/26 01:00:24;;;;;;;7.25;5.90;;;;;;;-144.32;100.00;68061.97;10308963;28;20085;-75
2023/07/26 01:05:49;;;;;;;5.60;4.75;;;;;;;-144.32;100.00;68061.97;10307107;28;20046;-76
2023/07/26 01:11:31;;;;;;;6.75;5.15;;;;;;;-144.32;100.00;68061.97;10306166;28;20582;-76
2023/07/26 01:16:49;;;;;;;5.95;4.97;;;;;;;-144.32;100.00;68061.97;10305610;28;20046;-76
2023/07/26 01:22:04;;;;;;;6.88;5.07;;;;;;;-144.32;100.00;68061.97;10302842;28;20197;-77
2023/07/26 01:27:23;;;;;;;5.93;4.40;;;;;;;-144.32;100.00;68061.97;10303646;28;20047;-76
2023/07/26 01:32:41;;;;;;;6.90;4.93;;;;;;;-144.32;100.00;68061.97;10310769;28;20478;-76
2023/07/26 01:38:08;;;;;;;5.93;4.75;;;;;;;-144.32;100.00;68061.97;10311166;28;20551;-76
2023/07/26 01:43:25;;;;;;;8.02;4.68;;;;;;;-144.32;100.00;68061.97;10291478;28;20081;-76
2023/07/26 01:48:40;;;;;;;7.03;4.55;;;;;;;-144.32;100.00;68061.97;10292892;28;20052;-79
2023/07/26 01:54:10;;;;;;;7.57;4.50;;;;;;;-144.32;100.00;68061.97;10306711;28;20104;-75
2023/07/26 01:59:47;;;;;;;7.10;4.63;;;;;;;-144.32;100.00;68061.97;10305220;28;20042;-76
2023/07/26 02:05:31;;;;;;;7.57;3.90;;;;;;;-144.32;100.00;68061.97;10287911;28;20068;-76
2023/07/26 02:11:11;;;;;;;6.28;4.55;;;;;;;-144.32;100.00;68061.97;10281767;28;20050;-78
2023/07/26 02:16:31;;;;;;;7.25;4.82;;;;;;;-144.32;100.00;68061.97;10301234;28;20108;-76
2023/07/26 02:21:49;;;;;;;5.00;4.50;;;;;;;-144.32;100.00;68061.97;10295433;28;20050;-78
2023/07/26 02:27:15;;;;;;;7.93;5.15;;;;;;;-144.32;100.00;68061.97;10268717;28;20487;-78
2023/07/26 02:32:23;;;;;;;5.75;4.50;;;;;;;-144.32;100.00;68061.97;10302855;28;20050;-78
2023/07/26 02:37:40;;;;;;;6.15;4.35;;;;;;;-144.32;100.00;68061.97;10303035;28;20073;-77
2023/07/26 02:42:59;;;;;;;6.80;4.43;;;;;;;-144.32;100.00;68061.97;10303491;28;20042;-78
2023/07/26 02:48:38;;;;;;;7.35;4.63;;;;;;;-144.32;100.00;68061.97;10304422;28;20105;-79
2023/07/26 02:54:24;;;;;;;6.40;4.53;;;;;;;-144.32;100.00;68061.97;10305554;28;20047;-78
2023/07/26 02:59:59;;;;;;;6.05;3.95;;;;;;;-144.32;100.00;68061.97;10303638;28;20048;-79
2023/07/26 03:05:27;;;;;;;4.85;4.15;;;;;;;-144.32;100.00;68061.97;10302768;28;20083;-78
2023/07/26 03:11:20;;;;;;;5.90;4.10;;;;;;;-144.32;100.00;68061.97;10290164;28;20051;-77
2023/07/26 03:16:44;;;;;;;4.28;3.78;;;;;;;-144.32;100.00;68061.97;10293249;28;20050;-76
2023/07/26 03:22:35;;;;;;;6.07;3.80;;;;;;;-144.32;100.00;68061.97;10295373;28;20042;-75
2023/07/26 03:28:28;;;;;;;12.32;4.97;;;;;;;-144.32;100.00;68061.97;10295998;28;20490;-76
2023/07/26 03:34:23;;;;;;;6.70;4.40;;;;;;;-144.32;100.00;68061.97;10301288;28;20054;-78
2023/07/26 03:40:21;;;;;;;6.90;4.33;;;;;;;-144.32;100.00;68061.97;10300621;28;20490;-78
2023/07/26 03:46:19;;;;;;;8.52;4.18;;;;;;;-144.32;100.00;68061.97;10306227;28;20100;-76
2023/07/26 03:52:12;;;;;;;6.82;4.30;;;;;;;-144.32;100.00;68061.97;10282905;28;20055;-75
2023/07/26 03:58:08;;;;;;;4.40;4.00;;;;;;;-144.32;100.00;68061.97;10294617;28;20046;-76
2023/07/26 04:04:04;;;;;;;8.82;4.13;;;;;;;-144.32;100.00;68061.97;10300720;28;20053;-76
2023/07/26 04:10:02;;;;;;;6.38;4.75;;;;;;;-144.32;100.00;68061.97;10301595;28;20066;-78
2023/07/26 04:16:10;;;;;;;5.05;4.40;;;;;;;-144.32;100.00;68061.97;10288768;28;20050;-76
2023/07/26 04:22:11;;;;;;;8.98;4.32;;;;;;;-144.32;100.00;68061.97;10296334;28;20073;-76
2023/07/26 04:28:10;;;;;;;6.85;3.97;;;;;;;-144.32;100.00;68061.97;10301052;28;20823;-79
2023/07/26 04:34:09;;;;;;;4.32;3.92;;;;;;;-144.32;100.00;68061.97;10306033;28;20057;-77
2023/07/26 04:40:08;;;;;;;8.52;4.65;;;;;;;-144.32;100.00;68061.97;10310467;28;20042;-75
2023/07/26 04:46:05;;;;;;;5.32;4.72;;;;;;;-144.32;100.00;68061.97;10302887;28;20038;-76
2023/07/26 04:52:04;;;;;;;6.45;4.72;;;;;;;-144.32;100.00;68061.97;10306727;28;20058;-77
2023/07/26 04:58:03;;;;;;;8.10;5.28;;;;;;;-144.32;100.00;68061.97;10308846;28;20053;-76
2023/07/26 05:04:03;;;;;;;4.88;4.28;;;;;;;-144.32;100.00;68061.97;10279660;28;20510;-74
2023/07/26 05:10:02;;;;;;;5.72;4.25;;;;;;;-144.32;100.00;68061.97;10302735;28;20078;-77
2023/07/26 05:16:00;;;;;;;6.13;4.28;;;;;;;-144.32;100.00;68061.97;10299703;28;20081;-75
2023/07/26 05:21:59;;;;;;;5.63;4.25;;;;;;;-144.32;100.00;68061.97;10301589;28;20042;-75
2023/07/26 05:27:58;;;;;;;6.38;3.70;;;;;;;-144.32;100.00;68061.97;10306626;28;22506;-75
2023/07/26 05:33:55;;;;;;;4.25;3.85;;;;;;;-144.32;100.00;68061.97;10273775;28;20156;-75
2023/07/26 05:39:55;;;;;;;8.10;7.10;;;;;;;-144.32;100.00;68061.97;10308940;28;20053;-79
2023/07/26 05:45:54;;;;;;;5.68;4.05;;;;;;;-144.32;100.00;68061.97;10305918;28;20101;-73
2023/07/26 05:51:53;;;;;;;6.35;4.00;;;;;;;-144.32;100.00;68061.97;10287094;28;20042;-73
2023/07/26 05:57:52;;;;;;;5.90;5.15;;;;;;;-144.32;100.00;68061.97;10289604;28;20066;-76
2023/07/26 06:03:51;;;;;;;6.63;4.30;;;;;;;-144.32;100.00;68061.97;10301533;28;20053;-77
2023/07/26 06:09:49;;;;;;;6.85;4.40;;;;;;;-144.32;100.00;68061.97;10299692;28;20089;-73
2023/07/26 06:15:48;;;;;;;4.55;3.60;;;;;;;-144.32;100.00;68061.97;10294892;28;20129;-73
2023/07/26 06:21:47;;;;;;;5.68;3.88;;;;;;;-144.32;100.00;68061.97;10303344;28;20475;-76
2023/07/26 06:27:46;;;;;;;6.78;4.57;;;;;;;-144.32;100.00;68061.97;10308825;28;20043;-80
2023/07/26 06:33:48;;;;;;;4.93;3.40;;;;;;;-144.32;100.00;68061.97;10288577;28;20599;-78
2023/07/26 06:39:47;;;;;;;4.95;3.10;;;;;;;-144.32;100.00;68061.97;10307041;28;20395;-79
2023/07/26 06:45:47;;;;;;;4.13;3.13;;;;;;;-144.32;100.00;68061.97;10308663;28;20047;-78
2023/07/26 06:51:46;;;;;;;5.07;3.42;;;;;;;-144.32;100.00;68061.97;10306773;28;20089;-79
2023/07/26 06:57:45;;;;;;;6.53;3.28;;;;;;;-144.32;100.00;68061.97;10301593;28;20078;-80
2023/07/26 07:03:44;;;;;;;4.60;2.88;;;;;;;-144.32;100.00;68061.97;10302191;28;20045;-79
2023/07/26 07:09:43;;;;;;;2.97;2.30;;;;;;;-144.32;100.00;68061.97;10298036;28;20057;-80
2023/07/26 07:15:43;;;;;;;4.10;2.70;;;;;;;-144.32;100.00;68061.97;10296535;28;20050;-79
2023/07/26 07:21:44;;;;;;;3.90;3.00;;;;;;;-144.32;100.00;68061.97;10298566;28;20956;-79
2023/07/26 07:27:43;;;;;;;3.85;3.17;;;;;;;-144.32;100.00;68061.97;10284476;28;20049;-77
2023/07/26 07:33:43;;;;;;;4.63;2.30;;;;;;;-144.32;100.00;68061.97;10284250;28;20054;-76
2023/07/26 07:39:42;;;;;;;3.33;2.08;;;;;;;-144.32;100.00;68061.97;10298405;28;21629;-78
2023/07/26 07:45:42;;;;;;;3.28;2.35;;;;;;;-144.32;100.00;68061.97;10301987;28;20145;-78
2023/07/26 07:51:44;;;;;;;3.75;2.53;;;;;;;-144.32;100.00;68061.97;10310313;28;20046;-76
2023/07/26 07:57:43;;;;;;;3.78;1.85;;;;;;;-144.32;100.00;68061.97;10292859;28;20104;-77
2023/07/26 08:03:42;;;;;;;3.35;2.20;;;;;;;-144.32;100.00;68061.97;10297604;28;20046;-75
2023/07/26 08:09:41;;;;;;;3.47;2.67;;;;;;;-144.32;100.00;68061.97;10302243;28;20042;-74
2023/07/26 08:15:46;;;;;;;4.15;2.50;;;;;;;-144.32;100.00;68061.97;10308523;28;20057;-76
2023/07/26 08:21:45;;;;;;;3.95;2.83;;;;;;;-144.32;100.00;68061.97;10317422;28;20096;-77
2023/07/26 08:27:46;;;;;;;4.90;2.35;;;;;;;-144.32;100.00;68061.97;10284744;28;20136;-75
2023/07/26 08:33:47;;;;;;;4.38;2.33;;;;;;;-144.32;100.00;68061.97;10310982;28;20053;-76
2023/07/26 08:39:47;;;;;;;7.50;3.70;;;;;;;-144.32;100.00;68061.97;10323190;28;20042;-76
2023/07/26 08:45:49;;;;;;;5.72;4.80;;;;;;;-144.32;100.00;68061.97;10332248;28;20117;-76
2023/07/26 08:51:48;;;;;;;7.70;4.55;;;;;;;-144.32;100.00;68061.97;10303386;28;20050;-78
2023/07/26 08:57:46;;;;;;;6.18;4.38;;;;;;;-144.32;100.00;68061.97;10322686;28;20050;-74
2023/07/26 09:03:43;;;;;;;4.82;3.92;;;;;;;-144.32;100.00;68061.97;10312942;28;20545;-78
2023/07/26 09:09:41;;;;;;;6.57;4.90;;;;;;;-144.32;100.00;68061.97;10300959;28;21139;-77
2023/07/26 09:15:42;;;;;;;6.75;4.90;;;;;;;-144.32;100.00;68061.97;10312261;28;20042;-78
2023/07/26 09:21:42;;;;;;;6.32;4.55;;;;;;;-144.32;100.00;68061.97;10319571;28;20046;-78
2023/07/26 09:27:54;;;;;;;5.78;4.55;;;;;;;-144.32;100.00;68061.97;10315117;28;20051;-78
2023/07/26 09:33:56;;;;;;;4.97;4.25;;;;;;;-144.32;100.00;68061.97;10312691;28;20759;-78
2023/07/26 09:39:54;;;;;;;6.90;5.40;;;;;;;-144.32;100.00;68061.97;10304848;28;20046;-78
2023/07/26 09:46:04;;;;;;;7.65;5.50;;;;;;;-144.32;100.00;68061.97;10314995;28;20046;-77
2023/07/26 09:52:08;;;;;;;10.80;6.40;;;;;;;-144.32;100.00;68061.97;10297306;28;20107;-79
2023/07/26 09:58:07;;;;;;;9.80;8.30;;;;;;;-144.32;100.00;68061.97;10307577;28;20046;-79
2023/07/26 10:04:14;;;;;;;6.55;5.80;;;;;;;-144.32;100.00;68061.97;10287083;28;20039;-76
2023/07/26 10:10:16;;;;;;;6.70;3.90;;;;;;;-144.32;100.00;68061.97;10300511;28;20573;-78
2023/07/26 10:16:03;;;;;;;5.10;4.60;;;;;;;-144.32;100.00;68061.97;10285960;28;20042;-79
2023/07/26 10:21:27;;;;;;;10.35;6.15;;;;;;;-144.32;100.00;68061.97;10305833;28;20058;-77
2023/07/26 10:27:22;;;;;;;15.23;11.85;;;;;;;-144.32;100.00;68061.97;10303785;28;20522;-79
2023/07/26 10:33:14;;;;;;;12.80;9.32;;;;;;;-144.32;100.00;68061.97;10307218;28;20064;-81
2023/07/26 10:38:24;;;;;;;10.70;9.13;;;;;;;-144.32;100.00;68061.97;10304020;28;20089;-76
2023/07/26 10:43:48;;;;;;;11.68;9.82;;;;;;;-144.32;100.00;68061.97;10284848;28;20093;-81
2023/07/26 10:49:24;;;;;;;15.20;10.38;;;;;;;-144.32;100.00;68061.97;10288345;28;20046;-80
2023/07/26 10:55:00;;;;;;;8.60;7.63;;;;;;;-144.32;100.00;68061.97;10296924;28;20506;-81
2023/07/26 11:00:31;;;;;;;10.63;7.95;;;;;;;-144.32;100.00;68061.97;10305086;28;20042;-81
2023/07/26 11:06:09;;;;;;;8.23;6.35;;;;;;;-144.32;100.00;68061.97;10293907;28;20096;-82
2023/07/26 11:12:02;;;;;;;8.27;5.90;;;;;;;-144.32;100.00;68061.97;10301518;28;20052;-81
2023/07/26 11:18:03;;;;;;;6.88;5.22;;;;;;;-144.32;100.00;68061.97;10308451;28;20047;-81
2023/07/26 11:24:03;;;;;;;5.85;4.32;;;;;;;-144.32;100.00;68061.97;10305081;28;20057;-79
2023/07/26 11:30:01;;;;;;;5.03;4.22;;;;;;;-144.32;100.00;68061.97;10302607;28;20477;-74
2023/07/26 11:35:55;;;;;;;4.18;3.72;;;;;;;-144.32;100.00;68061.97;10298011;28;20050;-75
2023/07/26 11:41:45;;;;;;;3.63;3.33;;;;;;;-144.32;100.00;68061.97;10302331;28;20560;-76
2023/07/26 11:47:35;;;;;;;3.97;3.58;;;;;;;-144.32;100.00;68061.97;10296462;28;20053;-74
2023/07/26 11:53:30;;;;;;;3.33;2.22;;;;;;;-144.32;100.00;68061.97;10293986;28;20042;-75
2023/07/26 11:59:32;;;;;;;4.00;2.40;;;;;;;-144.32;100.00;68061.97;10298279;28;20038;-75
2023/07/26 12:05:29;;;;;;;3.20;2.65;;;;;;;-144.32;100.00;68061.97;10294493;28;20046;-74
2023/07/26 12:11:31;;;;;;;4.28;2.60;;;;;;;-144.32;100.00;68061.97;10296843;28;20069;-75
2023/07/26 12:17:30;;;;;;;2.63;1.85;;;;;;;-144.32;100.00;68061.97;10294493;28;20829;-75
2023/07/26 12:23:48;;;;;;;2.00;1.90;;;;;;;-144.32;100.00;68061.97;10299744;28;20079;-75
2023/07/26 12:29:51;;;;;;;2.55;2.10;;;;;;;-144.32;100.00;68061.97;10300785;28;20042;-77
2023/07/26 12:35:53;;;;;;;2.30;2.10;;;;;;;-144.32;100.00;68061.97;10301794;28;20074;-77
2023/07/26 12:41:52;;;;;;;3.40;2.33;;;;;;;-144.32;100.00;68061.97;10301730;28;20403;-76
2023/07/26 12:47:51;;;;;;;2.17;1.98;;;;;;;-144.32;100.00;68061.97;10299042;28;20061;-76
2023/07/26 12:53:50;;;;;;;3.38;2.70;;;;;;;-144.32;100.00;68061.97;10305497;28;20046;-76
2023/07/26 12:59:48;;;;;;;2.67;2.40;;;;;;;-144.32;100.00;68061.97;10300283;28;20756;-77
2023/07/26 13:05:36;;;;;;;2.95;2.30;;;;;;;-144.32;100.00;68061.97;10302729;28;20145;-76
2023/07/26 13:11:35;;;;;;;2.38;2.17;;;;;;;-144.32;100.00;68061.97;10297344;28;20052;-75
2023/07/26 13:17:34;;;;;;;3.78;2.53;;;;;;;-144.32;100.00;68061.97;10304573;28;20062;-75
2023/07/26 13:23:33;;;;;;;3.03;2.42;;;;;;;-144.32;100.00;68061.97;10304441;28;20057;-76
2023/07/26 13:29:30;;;;;;;3.35;2.63;;;;;;;-144.32;100.00;68061.97;10309869;28;20390;-74
2023/07/26 13:35:17;;;;;;;2.85;2.65;;;;;;;-144.32;100.00;68061.97;10308561;28;20046;-73
2023/07/26 13:40:56;;;;;;;4.20;2.95;;;;;;;-144.32;100.00;68061.97;10303245;28;20050;-81
2023/07/26 13:46:51;;;;;;;26.90;21.50;;;;;;;-144.32;100.00;68061.97;10305324;28;20580;-74
2023/07/26 13:52:48;;;;;;;86.67;56.93;;;;;;;-144.32;100.00;68061.97;10305436;28;20042;-76
2023/07/26 13:58:46;;;;;;;15.13;13.68;;;;;;;-144.32;100.00;68061.97;10295639;28;20142;-74
2023/07/26 14:04:44;;;;;;;5.70;4.80;;;;;;;-144.32;100.00;68061.97;10299389;28;20149;-74
2023/07/26 14:10:43;;;;;;;6.40;4.90;;;;;;;-144.32;100.00;68061.97;10277302;28;20116;-75
2023/07/26 14:16:29;;;;;;;4.15;3.33;;;;;;;-144.32;100.00;68061.97;10300615;28;20042;-75
2023/07/26 14:22:23;;;;;;;3.70;3.35;;;;;;;-144.32;100.00;68061.97;10302713;28;20054;-77
2023/07/26 14:28:19;;;;;;;4.68;3.25;;;;;;;-144.32;100.00;68061.97;10304443;28;20050;-80
2023/07/26 14:34:03;;;;;;;4.82;3.83;;;;;;;-144.32;100.00;68061.97;10312088;28;20053;-82
2023/07/26 14:39:49;;;;;;;3.30;3.05;;;;;;;-144.32;100.00;68061.97;10310195;28;20117;-85
2023/07/26 14:45:51;;;;;;;2.97;2.67;;;;;;;-144.32;100.00;68061.97;10312056;28;20089;-84
2023/07/26 14:51:52;;;;;;;4.15;2.92;;;;;;;-144.32;100.00;68061.97;10318598;28;20065;-81
2023/07/26 14:57:52;;;;;;;3.45;2.53;;;;;;;-144.32;100.00;68061.97;10316224;28;20042;-83
2023/07/26 15:03:50;;;;;;;2.55;2.35;;;;;;;-144.32;100.00;68061.97;10285337;28;20122;-84
2023/07/26 15:09:49;;;;;;;3.20;2.88;;;;;;;-144.32;100.00;68061.97;10291936;28;20140;-81
2023/07/26 15:15:48;;;;;;;3.72;3.42;;;;;;;-144.32;100.00;68061.97;10305044;28;20038;-81
2023/07/26 15:21:45;;;;;;;6.20;4.07;;;;;;;-144.32;100.00;68061.97;10308364;28;20046;-79
2023/07/26 15:27:39;;;;;;;5.72;4.55;;;;;;;-144.32;100.00;68061.97;10305297;28;20632;-78
2023/07/26 15:33:16;;;;;;;4.90;4.38;;;;;;;-144.32;100.00;68061.97;10305331;28;20053;-78
2023/07/26 15:39:12;;;;;;;7.47;4.82;;;;;;;-144.32;100.00;68061.97;10307689;28;20148;-81
2023/07/26 15:45:10;;;;;;;6.50;4.85;;;;;;;-144.32;100.00;68061.97;10301994;28;20042;-81
2023/07/26 15:51:08;;;;;;;6.35;5.00;;;;;;;-144.32;100.00;68061.97;10299906;28;20042;-80
2023/07/26 15:57:04;;;;;;;5.82;5.22;;;;;;;-144.32;100.00;68061.97;10289415;28;20093;-82
2023/07/26 16:02:53;;;;;;;4.93;4.25;;;;;;;-144.32;100.00;68061.97;10302025;28;20046;-79
2023/07/26 16:08:31;;;;;;;5.07;4.00;;;;;;;-144.32;100.00;68061.97;10303772;28;20502;-79
2023/07/26 16:13:55;;;;;;;3.33;2.90;;;;;;;-144.32;100.00;68061.97;10300802;28;20498;-79
2023/07/26 16:19:21;;;;;;;4.63;3.30;;;;;;;-144.32;100.00;68061.97;10310243;28;20043;-82
2023/07/26 16:24:49;;;;;;;3.30;2.80;;;;;;;-144.32;100.00;68061.97;10297475;28;20136;-80
2023/07/26 16:30:06;;;;;;;3.33;2.97;;;;;;;-144.32;100.00;68061.97;10310394;28;20513;-78
2023/07/26 16:35:16;;;;;;;4.60;3.60;;;;;;;-144.32;100.00;68061.97;10313832;28;20158;-80
2023/07/26 16:40:26;;;;;;;4.15;3.15;;;;;;;-144.32;100.00;68061.97;10297922;28;20074;-80
2023/07/26 16:45:42;;;;;;;4.53;3.13;;;;;;;-144.32;100.00;68061.97;10305504;28;20078;-80
2023/07/26 16:50:55;;;;;;;4.25;3.40;;;;;;;-144.32;100.00;68061.97;10312525;28;20045;-81
2023/07/26 16:56:08;;;;;;;3.67;3.38;;;;;;;-144.32;100.00;68061.97;10303110;28;20081;-82
2023/07/26 17:01:21;;;;;;;3.88;3.47;;;;;;;-144.32;100.00;68061.97;10325999;28;20156;-81
2023/07/26 17:06:25;;;;;;;4.15;3.58;;;;;;;-144.32;100.00;68061.97;10307703;28;20181;-81
2023/07/26 17:11:48;;;;;;;4.70;3.20;;;;;;;-144.32;100.00;68061.97;10319009;28;20042;-80
2023/07/26 17:17:08;;;;;;;5.20;3.65;;;;;;;-144.32;100.00;68061.97;10336527;28;20022;-80
2023/07/26 17:22:15;;;;;;;4.53;3.22;;;;;;;-144.32;100.00;68061.97;10305611;28;20372;-78
2023/07/26 17:27:22;;;;;;;4.88;3.90;;;;;;;-144.32;100.00;68061.97;10307265;28;20081;-76
2023/07/26 17:32:25;;;;;;;5.32;4.20;;;;;;;-144.32;100.00;68061.97;10307774;28;20062;-78
2023/07/26 17:37:32;;;;;;;5.32;3.75;;;;;;;-144.32;100.00;68061.97;10305686;28;21352;-76
2023/07/26 17:42:41;;;;;;;5.05;3.40;;;;;;;-144.32;100.00;68061.97;10301919;28;20042;-77
2023/07/26 17:47:48;;;;;;;5.10;4.38;;;;;;;-144.32;100.00;68061.97;10301666;28;20124;-77
2023/07/26 17:52:56;;;;;;;5.65;4.70;;;;;;;-144.32;100.00;68061.97;10300389;28;20041;-76
2023/07/26 17:58:26;;;;;;;5.45;4.38;;;;;;;-144.32;100.00;68061.97;10304081;28;20085;-75
2023/07/26 18:03:45;;;;;;;5.32;4.57;;;;;;;-144.32;100.00;68061.97;10302336;28;20042;-76
2023/07/26 18:09:05;;;;;;;6.35;4.97;;;;;;;-144.32;100.00;68061.97;10287356;28;20056;-76
2023/07/26 18:14:14;;;;;;;6.75;4.93;;;;;;;-144.32;100.00;68061.97;10304330;28;20057;-77
2023/07/26 18:19:19;;;;;;;6.15;4.63;;;;;;;-144.32;100.00;68061.97;10303510;28;20046;-77
2023/07/26 18:24:23;;;;;;;5.80;4.70;;;;;;;-144.32;100.00;68061.97;10304586;28;20133;-79
2023/07/26 18:29:26;;;;;;;6.70;4.82;;;;;;;-144.32;100.00;68061.97;10294360;28;20049;-82
2023/07/26 18:34:35;;;;;;;7.20;5.72;;;;;;;-144.32;100.00;68061.97;10296798;28;20050;-83
2023/07/26 18:39:46;;;;;;;6.88;5.57;;;;;;;-144.32;100.00;68061.97;10313295;28;20043;-80
2023/07/26 18:44:58;;;;;;;9.45;5.80;;;;;;;-144.32;100.00;68061.97;10303498;28;20078;-80
2023/07/26 18:50:12;;;;;;;6.20;5.10;;;;;;;-144.32;100.00;68061.97;10308699;28;20523;-81
2023/07/26 18:55:24;;;;;;;6.60;5.20;;;;;;;-144.32;100.00;68061.97;10309754;28;20049;-80
2023/07/26 19:00:44;;;;;;;5.03;4.10;;;;;;;-144.32;100.00;68061.97;10304577;28;20746;-78
2023/07/26 19:06:02;;;;;;;4.95;4.25;;;;;;;-144.32;100.00;68061.97;10292887;28;20042;-79
2023/07/26 19:11:15;;;;;;;4.30;3.28;;;;;;;-144.32;100.00;68061.97;10329914;28;20118;-81
2023/07/26 19:16:18;;;;;;;5.50;4.00;;;;;;;-144.32;100.00;68061.97;10315360;28;20053;-79
2023/07/26 19:21:45;;;;;;;5.47;4.40;;;;;;;-144.32;100.00;68061.97;10299688;28;20049;-80
2023/07/26 19:26:56;;;;;;;5.20;3.75;;;;;;;-144.32;100.00;68061.97;10304815;28;20097;-79
2023/07/26 19:32:20;;;;;;;5.72;3.80;;;;;;;-144.32;100.00;68061.97;10295962;28;20042;-79
2023/07/26 19:37:23;;;;;;;5.18;3.80;;;;;;;-144.32;100.00;68061.97;10292057;28;20078;-77
2023/07/26 19:42:52;;;;;;;6.25;4.50;;;;;;;-144.32;100.00;68061.97;10292961;28;20447;-79
2023/07/26 19:48:22;;;;;;;6.07;4.30;;;;;;;-144.32;100.00;68061.97;10296135;28;20046;-78
2023/07/26 19:53:57;;;;;;;6.00;4.15;;;;;;;-144.32;100.00;68061.97;10292578;28;20161;-78
2023/07/26 19:59:09;;;;;;;4.45;3.75;;;;;;;-144.32;100.00;68061.97;10305494;28;20530;-76
2023/07/26 20:04:14;;;;;;;8.20;4.78;;;;;;;-144.32;100.00;68061.97;10284968;28;20046;-79
2023/07/26 20:09:18;;;;;;;7.60;5.60;;;;;;;-144.32;100.00;68061.97;10309304;28;20053;-80
2023/07/26 20:14:22;;;;;;;6.45;5.10;;;;;;;-144.32;100.00;68061.97;10306999;28;20062;-76
2023/07/26 20:19:24;;;;;;;6.85;5.70;;;;;;;-144.32;100.00;68061.97;10305290;28;20070;-78
2023/07/26 20:24:33;;;;;;;6.63;5.88;;;;;;;-144.32;100.00;68061.97;10309570;28;20058;-76
2023/07/26 20:29:41;;;;;;;7.78;5.97;;;;;;;-144.32;100.00;68061.97;10315600;28;20046;-79
2023/07/26 20:35:01;;;;;;;6.63;5.65;;;;;;;-144.32;100.00;68061.97;10308825;28;20057;-79
2023/07/26 20:40:26;;;;;;;6.43;5.47;;;;;;;-144.32;100.00;68061.97;10309273;28;20402;-80
2023/07/26 20:45:52;;;;;;;6.15;4.90;;;;;;;-144.32;100.00;68061.97;10291253;28;20124;-76
2023/07/26 20:51:03;;;;;;;6.30;5.18;;;;;;;-144.32;100.00;68061.97;10307939;28;20046;-77
2023/07/26 20:56:15;;;;;;;8.35;5.85;;;;;;;-144.32;100.00;68061.97;10305151;28;20046;-77
2023/07/26 21:01:22;;;;;;;6.63;5.53;;;;;;;-144.32;100.00;68061.97;10315362;28;20137;-78
2023/07/26 21:06:33;;;;;;;9.13;5.82;;;;;;;-144.32;100.00;68061.97;10315861;28;20732;-78
2023/07/26 21:12:18;;;;;;;7.10;5.70;;;;;;;-144.32;100.00;68061.97;10305435;28;20124;-78
2023/07/26 21:17:23;;;;;;;6.63;5.70;;;;;;;-144.32;100.00;68061.97;10291389;28;20050;-76
2023/07/26 21:22:32;;;;;;;8.00;6.18;;;;;;;-144.32;100.00;68061.97;10309319;28;20159;-78
2023/07/26 21:27:37;;;;;;;7.07;6.00;;;;;;;-144.32;100.00;68061.97;10303591;28;20042;-78
2023/07/26 21:32:46;;;;;;;7.45;6.05;;;;;;;-144.32;100.00;68061.97;10301161;28;20052;-76
2023/07/26 21:37:59;;;;;;;12.68;7.05;;;;;;;-144.32;100.00;68061.97;10304053;28;20144;-77
2023/07/26 21:43:14;;;;;;;6.85;6.15;;;;;;;-144.32;100.00;68061.97;10298310;28;20081;-76
2023/07/26 21:48:19;;;;;;;8.30;6.55;;;;;;;-144.32;100.00;68061.97;10300944;28;20149;-77
2023/07/26 21:53:22;;;;;;;8.25;6.20;;;;;;;-144.32;100.00;68061.97;10304479;28;20046;-77
2023/07/26 21:58:22;;;;;;;7.28;6.32;;;;;;;-144.32;100.00;68061.97;10289705;28;20058;-79
2023/07/26 22:03:23;;;;;;;8.93;7.38;;;;;;;-144.32;100.00;68061.97;10321615;28;20047;-79
2023/07/26 22:08:24;;;;;;;8.43;6.95;;;;;;;-144.32;100.00;68061.97;10311383;28;20124;-78
2023/07/26 22:13:24;;;;;;;8.90;6.40;;;;;;;-144.32;100.00;68061.97;10307217;28;20157;-78
2023/07/26 22:18:26;;;;;;;9.52;6.45;;;;;;;-144.32;100.00;68061.97;10305201;28;20054;-79
2023/07/26 22:23:31;;;;;;;8.38;6.40;;;;;;;-144.32;100.00;68061.97;10305677;28;20051;-81
2023/07/26 22:28:39;;;;;;;6.85;6.10;;;;;;;-144.32;100.00;68061.97;10302578;28;20046;-77
2023/07/26 22:33:49;;;;;;;10.55;6.15;;;;;;;-144.32;100.00;68061.97;10303385;28;20081;-78
2023/07/26 22:38:58;;;;;;;6.57;5.60;;;;;;;-144.32;100.00;68061.97;10300125;28;20038;-78
2023/07/26 22:44:02;;;;;;;8.02;6.55;;;;;;;-144.32;100.00;68061.97;10295756;28;20050;-78
2023/07/26 22:49:06;;;;;;;6.07;5.30;;;;;;;-144.32;100.00;68061.97;10279447;28;20124;-78
2023/07/26 22:54:10;;;;;;;5.97;5.05;;;;;;;-144.32;100.00;68061.97;10298367;28;20061;-78
2023/07/26 22:59:21;;;;;;;6.82;6.10;;;;;;;-144.32;100.00;68061.97;10280996;28;20770;-77
2023/07/26 23:04:22;;;;;;;9.52;6.03;;;;;;;-144.32;100.00;68061.97;10295655;28;20057;-76
2023/07/26 23:09:22;;;;;;;8.95;5.47;;;;;;;-144.32;100.00;68061.97;10302424;28;20053;-77
2023/07/26 23:14:23;;;;;;;8.95;6.40;;;;;;;-144.32;100.00;68061.97;10299924;28;20127;-77
2023/07/26 23:19:24;;;;;;;6.90;6.13;;;;;;;-144.32;100.00;68061.97;10298777;28;20073;-75
2023/07/26 23:24:24;;;;;;;6.65;5.60;;;;;;;-144.32;100.00;68061.97;10299890;28;20116;-76
2023/07/26 23:29:25;;;;;;;8.65;5.97;;;;;;;-144.32;100.00;68061.97;10297391;28;20034;-76
2023/07/26 23:34:25;;;;;;;8.82;6.88;;;;;;;-144.32;100.00;68061.97;10293075;28;20065;-77
2023/07/26 23:39:25;;;;;;;9.27;7.07;;;;;;;-144.32;100.00;68061.97;10289475;28;20062;-78
2023/07/26 23:44:26;;;;;;;10.32;7.43;;;;;;;-144.32;100.00;68061.97;10299845;28;20046;-79
2023/07/26 23:49:28;;;;;;;8.73;7.35;;;;;;;-144.32;100.00;68061.97;10301431;28;20135;-77
2023/07/26 23:54:28;;;;;;;8.90;7.00;;;;;;;-144.32;100.00;68061.97;10302333;28;20073;-77
2023/07/26 23:59:29;;;;;;;9.25;6.75;;;;;;;-144.32;100.00;68061.97;10284471;28;20052;-77
